﻿ProjectID	SampleID	SampleType	TaxonomyID	UniqCodeType	UniqCode	SampleName	ScientificName	CommonName	CollectionYear	CollectionMonth	CollectionDay	SamplingTimeStartEnd	SamplingTimeAMPM	SamplingDuration	WeatherStartEnd	CollectionRegion	CollectionCountry	CollectionArea	CollectionLatitudeFrom	CollectionLatitudeTo	CollectionLongitudeFrom	CollectionLongitudeTo	Sex	TissueOrgan	TissueLipid	TissueMoist	Weight	WeightUnit	Length	LengthUnit	LengthType	GrowthStage	Age	Disease	TemperatureStartEnd	WaterTemperatureStartEnd	pH	DO	EC	EC_temp	Salinity	SS	WaterDepthM	TransparencyM	WaterColor	SedimentTemperatureStartEnd	SedimentDepthM	SedimentAppearance	SedimentColor	SedimentSurfaceColor	SedimentOdor	SedimentImpurities	SedimentMoistureOnSiteAnalysis	IgnitionLossOnSiteAnalysis	SoilDepthM	FlowRate	MeanPM10	MeanTotalSuspendedParticles	HumidityStartEnd	WindDirectionStartEnd	WindSpeedMSStartEnd	AmountOfCollectedAirStartEnd	Remarks	RegisterDate	UpdateDate
PRA000102	SAA007184	ST014				St.1_central_SetoIS_2017	Water	"Sea water"	2017	6	12	10:23				Asia	Japan	"Central part of the Seto Inland Sea"	34.31666667		132.3666667														21.4	20.6					30.543		18.6																					2020/7/1	2020/7/1
PRA000102	SAA007185	ST014				St.2_central_SetoIS_2017	Water	"Sea water"	2017	12	11	11:33				Asia	Japan	"Central part of the Seto Inland Sea"	34.22777778		132.5277778														10.3	15.1					31.785		21.3																					2020/7/1	2020/7/1
PRA000102	SAA007186	ST014				St.3_central_SetoIS_2017	Water	"Sea water"	2017	6	12	12:26				Asia	Japan	"Central part of the Seto Inland Sea"	34.2		132.5944444														21.9	19.5					32.974		11.8																					2020/7/1	2020/7/1
PRA000102	SAA007187	ST014				St.4_central_SetoIS_2017	Water	"Sea water"	2017	6	16	10:23				Asia	Japan	"Central part of the Seto Inland Sea"	34.08333333		132.6666667														24.8	19.8					33.141		37.7																					2020/7/1	2020/7/1
PRA000102	SAA007188	ST014				St.5_central_SetoIS_2017	Water	"Sea water"	2017	6	12	14:13				Asia	Japan	"Central part of the Seto Inland Sea"	34.3		132.8166667														24	19.7					33.088		8.4																					2020/7/1	2020/7/1
PRA000102	SAA007189	ST014				St.6_central_SetoIS_2017	Water	"Sea water"	2017	6	12	15:22				Asia	Japan	"Central part of the Seto Inland Sea"	34.33055556		132.9611111														23.1	18.4					33.013		16.1																					2020/7/1	2020/7/1
PRA000102	SAA007190	ST014				St.7_central_SetoIS_2017	Water	"Sea water"	2017	6	13	9:24				Asia	Japan	"Central part of the Seto Inland Sea"	34.38055556		133.1166667														19.4	19					32.908		17.2																					2020/7/1	2020/7/1
PRA000102	SAA007191	ST014				St.8_central_SetoIS_2017	Water	"Sea water"	2017	6	13	10:28				Asia	Japan	"Central part of the Seto Inland Sea"	34.33333333		133.3														19.1	20.2					32.86		17.9																					2020/7/1	2020/7/1
PRA000102	SAA007192	ST014				St.9_central_SetoIS_2017	Water	"Sea water"	2017	6	13	11:30				Asia	Japan	"Central part of the Seto Inland Sea"	34.38333333		133.4666667														20.6	21.3					32.712		17.5																					2020/7/1	2020/7/1
PRA000102	SAA007193	ST014				St.10_central_SetoIS_2017	Water	"Sea water"	2017	6	13	13:05				Asia	Japan	"Central part of the Seto Inland Sea"	34.47222222		133.7														23.5	20.8					32.516		14.2																					2020/7/1	2020/7/1
PRA000102	SAA007194	ST014				St.11_central_SetoIS_2017	Water	"Sea water"	2017	6	13	14:57				Asia	Japan	"Central part of the Seto Inland Sea"	34.38333333		134.0666667														21.6	20.1					32.615		17.1																					2020/7/1	2020/7/1
PRA000102	SAA007195	ST014				St.12_central_SetoIS_2017	Water	"Sea water"	2017	6	14	9:53				Asia	Japan	"Central part of the Seto Inland Sea"	34.56666667		134.0833333														19.9	21					32.061		13.2																					2020/7/1	2020/7/1
PRA000102	SAA007196	ST014				St.13_central_SetoIS_2017	Water	"Sea water"	2017	6	14	10:51				Asia	Japan	"Central part of the Seto Inland Sea"	34.48333333		133.9666667														21.6	20.5					32.458		62.6																					2020/7/1	2020/7/1
PRA000102	SAA007197	ST014				St.14_central_SetoIS_2017	Water	"Sea water"	2017	12	13	12:01				Asia	Japan	"Central part of the Seto Inland Sea"	34.36666667		133.85														21.8	20.4					31.539		13																					2020/7/1	2020/7/1
PRA000102	SAA007198	ST014				St.15_central_SetoIS_2017	Water	"Sea water"	2017	6	14	14:03				Asia	Japan	"Central part of the Seto Inland Sea"	34.28333333		133.6666667														24.4	20.4					32.859		20.3																					2020/7/1	2020/7/1
PRA000102	SAA007199	ST014				St.16_central_SetoIS_2017	Water	"Sea water"	2017	6	15	9:16				Asia	Japan	"Central part of the Seto Inland Sea"	34		133.5														24	22.1					32.567		17.9																					2020/7/1	2020/7/1
PRA000102	SAA007200	ST014				St.17_central_SetoIS_2017	Water	"Sea water"	2017	6	15	10:44				Asia	Japan	"Central part of the Seto Inland Sea"	34.2		133.4166667														22.1	21.2					33.106		21.3																					2020/7/1	2020/7/1
PRA000102	SAA007201	ST014				St.18_central_SetoIS_2017	Water	"Sea water"	2017	6	15	14:47				Asia	Japan	"Central part of the Seto Inland Sea"	34.16666667		133.25														23.8	21.1					32.979		18.4																					2020/7/1	2020/7/1
PRA000102	SAA007202	ST014				St.22_central_SetoIS_2017	Water	"Sea water"	2017	6	15	12:53				Asia	Japan	"Central part of the Seto Inland Sea"	33.98333333		133.1555556														25.3	23.3					32.696		13																					2020/7/1	2020/7/1
PRA000102	SAA007203	ST014				St.23_central_SetoIS_2017	Water	"Sea water"	2017	6	16	8:54				Asia	Japan	"Central part of the Seto Inland Sea"	34.16666667		132.9														22.9	18.5					33.176		92																					2020/7/1	2020/7/1
PRA000102	SAA007204	ST014				St.A_eastern_SetoIS_2017	Water	"Sea water"	2017	9	11	11:16				Asia	Japan	"Eastern part of the Seto Inland Sea"	34.71666667		134.45														27.2	26.4					31.682		13.6																					2020/7/1	2020/7/1
PRA000102	SAA007205	ST014				St.B_eastern_SetoIS_2017	Water	"Sea water"	2017	9	11	8:56				Asia	Japan	"Eastern part of the Seto Inland Sea"	34.71666667		134.6166667														26.2	26.5					31.932		21.7																					2020/7/1	2020/7/1
PRA000102	SAA007206	ST014				St.C_eastern_SetoIS_2017	Water	"Sea water"	2017	9	10	15:11				Asia	Japan	"Eastern part of the Seto Inland Sea"	34.71666667		134.7833333														28.2	27.3					31.965		13.6																					2020/7/1	2020/7/1
PRA000102	SAA007207	ST014				St.D_eastern_SetoIS_2017	Water	"Sea water"	2017	9	11	10:06				Asia	Japan	"Eastern part of the Seto Inland Sea"	34.58333333		134.5333333														26.6	26.7					32.189		40.7																					2020/7/1	2020/7/1
PRA000102	SAA007208	ST014				St.E_eastern_SetoIS_2017	Water	"Sea water"	2017	9	9	13:36				Asia	Japan	"Eastern part of the Seto Inland Sea"	34.58333333		134.7														28.4	27.3					32.085		24.1																					2020/7/1	2020/7/1
PRA000102	SAA007209	ST014				St.F_eastern_SetoIS_2017	Water	"Sea water"	2017	9	10	13:58				Asia	Japan	"Eastern part of the Seto Inland Sea"	34.58333333		134.8666667														28	25.3					32.894		35.4																					2020/7/1	2020/7/1
PRA000102	SAA007210	ST014				St.G_eastern_SetoIS_2017	Water	"Sea water"	2017	9	9	11:31				Asia	Japan	"Eastern part of the Seto Inland Sea"	34.45		134.45														28	26.9					32.197		40.7																					2020/7/1	2020/7/1
PRA000102	SAA007211	ST014				St.H_eastern_SetoIS_2017	Water	"Sea water"	2017	9	9	12:32				Asia	Japan	"Eastern part of the Seto Inland Sea"	34.45		134.6166667														26.7	27					32.488		34.5																					2020/7/1	2020/7/1
PRA000102	SAA007212	ST014				St.I_eastern_SetoIS_2017	Water	"Sea water"	2017	9	9	9:15				Asia	Japan	"Eastern part of the Seto Inland Sea"	34.31666667		134.3666667														25	26.1					27.546		29.4																					2020/7/1	2020/7/1
PRA000102	SAA007213	ST014				St.J_eastern_SetoIS_2017	Water	"Sea water"	2017	9	9	10:25				Asia	Japan	"Eastern part of the Seto Inland Sea"	34.31666667		134.5333333														26.2	26.4					32.259		33.8																					2020/7/1	2020/7/1
PRA000102	SAA007214	ST014				St.K_eastern_SetoIS_2017	Water	"Sea water"	2017	9	10	8:54				Asia	Japan	"Eastern part of the Seto Inland Sea"	34.66666667		135.3805556														26.4	25.7					24.38		10.4																					2020/7/1	2020/7/1
PRA000102	SAA007215	ST014				St.L_eastern_SetoIS_2017	Water	"Sea water"	2017	9	9	15:59				Asia	Japan	"Eastern part of the Seto Inland Sea"	34.58888889		135.2055556														27.6	25.4					32.328		20.9																					2020/7/1	2020/7/1
PRA000102	SAA007216	ST014				St.M_eastern_SetoIS_2017	Water	"Sea water"	2017	9	10	10:10				Asia	Japan	"Eastern part of the Seto Inland Sea"	34.52777778		135.2805556														28.8	26					32.01		19.2																					2020/7/1	2020/7/1
PRA000102	SAA007217	ST014				St.N_eastern_SetoIS_2017	Water	"Sea water"	2017	9	10	11:18				Asia	Japan	"Eastern part of the Seto Inland Sea"	34.42222222		135.1388889														28	25.7					32.637		23.4																					2020/7/1	2020/7/1
PRA000102	SAA007218	ST014				St.O_eastern_SetoIS_2017	Water	"Sea water"	2017	9	10	12:00				Asia	Japan	"Eastern part of the Seto Inland Sea"	34.48333333		135.0638889														28.6	26.5					32.73		53.9																					2020/7/1	2020/7/1
PRA000102	SAA007219	ST014				St.1_central_SetoIS_2018	Water	"Sea water"	2018	6	11	10:25				Asia	Japan	"Central part of the Seto Inland Sea"	34.31666667		132.3666667														21.1	19.8					25.894		17.5																					2020/7/1	2020/7/1
PRA000102	SAA007220	ST014				St.2_central_SetoIS_2018	Water	"Sea water"	2018	6	11	11:44				Asia	Japan	"Central part of the Seto Inland Sea"	34.22777778		132.5277778														22.2	19.7					31.492		21.13																					2020/7/1	2020/7/1
PRA000102	SAA007221	ST014				St.3_central_SetoIS_2018	Water	"Sea water"	2018	6	11	12:27				Asia	Japan	"Central part of the Seto Inland Sea"	34.2		132.5944444														20.9	19					32.159		10.1																					2020/7/1	2020/7/1
PRA000102	SAA007222	ST014				St.4_central_SetoIS_2018	Water	"Sea water"	2018	6	15	10:53				Asia	Japan	"Central part of the Seto Inland Sea"	34.08333333		132.6666667														24.4	18.5					33.038		36.98																					2020/7/1	2020/7/1
PRA000102	SAA007223	ST014				St.5_central_SetoIS_2018	Water	"Sea water"	2018	6	11	14:21				Asia	Japan	"Central part of the Seto Inland Sea"	34.3		132.8166667														20.6	18.5					32.095		7.6																					2020/7/1	2020/7/1
PRA000102	SAA007224	ST014				St.6_central_SetoIS_2018	Water	"Sea water"	2018	6	11	15:22				Asia	Japan	"Central part of the Seto Inland Sea"	34.33055556		132.9611111														20.4	18.4					32.592		15.48																					2020/7/1	2020/7/1
PRA000102	SAA007225	ST014				St.7_central_SetoIS_2018	Water	"Sea water"	2018	6	12	9:37				Asia	Japan	"Central part of the Seto Inland Sea"	34.38055556		133.1166667														20.6	18.7					32.545		18.49																					2020/7/1	2020/7/1
PRA000102	SAA007226	ST014				St.8_central_SetoIS_2018	Water	"Sea water"	2018	6	12	10:42				Asia	Japan	"Central part of the Seto Inland Sea"	34.33333333		133.3														22.1	20.8					31.92		18.68																					2020/7/1	2020/7/1
PRA000102	SAA007227	ST014				St.9_central_SetoIS_2018	Water	"Sea water"	2018	6	12	11:42				Asia	Japan	"Central part of the Seto Inland Sea"	34.38333333		133.4666667														22.7	20.8					31.534		17.39																					2020/7/1	2020/7/1
PRA000102	SAA007228	ST014				St.10_central_SetoIS_2018	Water	"Sea water"	2018	6	12	13:12				Asia	Japan	"Central part of the Seto Inland Sea"	34.47222222		133.7														23.7	19.9					31.823		14.19																					2020/7/1	2020/7/1
PRA000102	SAA007229	ST014				St.11_central_SetoIS_2018	Water	"Sea water"	2018	6	12	15:05				Asia	Japan	"Central part of the Seto Inland Sea"	34.38333333		134.0666667														26	20					31.932		16.93																					2020/7/1	2020/7/1
PRA000102	SAA007230	ST014				St.12_central_SetoIS_2018	Water	"Sea water"	2018	6	13	10:10				Asia	Japan	"Central part of the Seto Inland Sea"	34.56666667		134.0833333														22.4	20.3					30.899		14.88																					2020/7/1	2020/7/1
PRA000102	SAA007231	ST014				St.13_central_SetoIS_2018	Water	"Sea water"	2018	6	13	11:20				Asia	Japan	"Central part of the Seto Inland Sea"	34.48333333		133.9666667														20.9	19.9					31.523		73.79																					2020/7/1	2020/7/1
PRA000102	SAA007232	ST014				St.14_central_SetoIS_2018	Water	"Sea water"	2018	6	13	12:50				Asia	Japan	"Central part of the Seto Inland Sea"	34.36666667		133.85														21.8	20.4					32.181		14.77																					2020/7/1	2020/7/1
PRA000102	SAA007233	ST014				St.15_central_SetoIS_2018	Water	"Sea water"	2018	6	13	15:02				Asia	Japan	"Central part of the Seto Inland Sea"	34.28333333		133.6666667														22.9	20.2					32.521		15.91																					2020/7/1	2020/7/1
PRA000102	SAA007234	ST014				St.16_central_SetoIS_2018	Water	"Sea water"	2018	6	14	9:29				Asia	Japan	"Central part of the Seto Inland Sea"	34		133.5														21.1	21.8					31.566		19.5																					2020/7/1	2020/7/1
PRA000102	SAA007235	ST014				St.17_central_SetoIS_2018	Water	"Sea water"	2018	6	14	10:51				Asia	Japan	"Central part of the Seto Inland Sea"	34.2		133.4166667														21.3	20.2					32.254		22.92																					2020/7/1	2020/7/1
PRA000102	SAA007236	ST014				St.18_central_SetoIS_2018	Water	"Sea water"	2018	6	14	14:14				Asia	Japan	"Central part of the Seto Inland Sea"	34.16666667		133.25														20.9	20.4					32.348		17.41																					2020/7/1	2020/7/1
PRA000102	SAA007237	ST014				St.22_central_SetoIS_2018	Water	"Sea water"	2018	6	14	12:48				Asia	Japan	"Central part of the Seto Inland Sea"	33.98333333		133.1555556														21.9	21.1					31.495		12.57																					2020/7/1	2020/7/1
PRA000102	SAA007238	ST014				St.23_central_SetoIS_2018	Water	"Sea water"	2018	6	15	9:13				Asia	Japan	"Central part of the Seto Inland Sea"	34.16666667		132.9														20.6	18.6					32.892		97																					2020/7/1	2020/7/1
PRA000102	SAA007239	ST014				St.A_eastern_SetoIS_2018	Water	"Sea water"	2018	11	30	16:16				Asia	Japan	"Eastern part of the Seto Inland Sea"	34.71666667		134.45														15.8	15.9					30.319		13.5																					2020/7/1	2020/7/1
PRA000102	SAA007240	ST014				St.B_eastern_SetoIS_2018	Water	"Sea water"	2018	11	30	15:17				Asia	Japan	"Eastern part of the Seto Inland Sea"	34.71666667		134.6166667														16.8	17.2					30.941		22.4																					2020/7/1	2020/7/1
PRA000102	SAA007241	ST014				St.C_eastern_SetoIS_2018	Water	"Sea water"	2018	11	30	14:15				Asia	Japan	"Eastern part of the Seto Inland Sea"	34.71666667		134.7833333														17.4	16.9					30.638		13.6																					2020/7/1	2020/7/1
PRA000102	SAA007242	ST014				St.D_eastern_SetoIS_2018	Water	"Sea water"	2018	11	29	12:39				Asia	Japan	"Eastern part of the Seto Inland Sea"	34.58333333		134.5333333														17.2	18					31.266		40.9																					2020/7/1	2020/7/1
PRA000102	SAA007243	ST014				St.E_eastern_SetoIS_2018	Water	"Sea water"	2018	11	29	13:44				Asia	Japan	"Eastern part of the Seto Inland Sea"	34.58333333		134.7														17	17.8					31.12		24.06																					2020/7/1	2020/7/1
PRA000102	SAA007244	ST014				St.F_eastern_SetoIS_2018	Water	"Sea water"	2018	11	29	14:56				Asia	Japan	"Eastern part of the Seto Inland Sea"	34.58333333		134.8666667														17	17.6					32.345		34.67																					2020/7/1	2020/7/1
PRA000102	SAA007245	ST014				St.G_eastern_SetoIS_2018	Water	"Sea water"	2018	11	29	9:25				Asia	Japan	"Eastern part of the Seto Inland Sea"	34.45		134.45														14.9	17.8					30.957		39.1																					2020/7/1	2020/7/1
PRA000102	SAA007246	ST014				St.H_eastern_SetoIS_2018	Water	"Sea water"	2018	11	29	11:37				Asia	Japan	"Eastern part of the Seto Inland Sea"	34.45		134.6166667														17.3	17.8					31.354		33.8																					2020/7/1	2020/7/1
PRA000102	SAA007247	ST014				St.I_eastern_SetoIS_2018	Water	"Sea water"	2018	11	28	14:58				Asia	Japan	"Eastern part of the Seto Inland Sea"	34.31666667		134.3666667														16.5	17.3					31.184		29.82																					2020/7/1	2020/7/1
PRA000102	SAA007248	ST014				St.J_eastern_SetoIS_2018	Water	"Sea water"	2018	11	29	10:29				Asia	Japan	"Eastern part of the Seto Inland Sea"	34.31666667		134.5333333														15	16.9					31.523		32.6																					2020/7/1	2020/7/1
PRA000102	SAA007249	ST014				St.K_eastern_SetoIS_2018	Water	"Sea water"	2018	11	30	8:18				Asia	Japan	"Eastern part of the Seto Inland Sea"	34.66666667		135.3805556														11.1	14.7					21.516		9.1																					2020/7/1	2020/7/1
PRA000102	SAA007250	ST014				St.L_eastern_SetoIS_2018	Water	"Sea water"	2018	11	29	17:01				Asia	Japan	"Eastern part of the Seto Inland Sea"	34.58888889		135.2055556														15.1	16.5					31.396		21																					2020/7/1	2020/7/1
PRA000102	SAA007251	ST014				St.M_eastern_SetoIS_2018	Water	"Sea water"	2018	11	30	10:02				Asia	Japan	"Eastern part of the Seto Inland Sea"	34.52777778		135.2805556														14.6	16.4					31.241		18.4																					2020/7/1	2020/7/1
PRA000102	SAA007252	ST014				St.N_eastern_SetoIS_2018	Water	"Sea water"	2018	11	30	11:09				Asia	Japan	"Eastern part of the Seto Inland Sea"	34.42222222		135.1388889														16.2	17.4					32.064		23.2																					2020/7/1	2020/7/1
PRA000102	SAA007253	ST014				St.O_eastern_SetoIS_2018	Water	"Sea water"	2018	11	30	11:46				Asia	Japan	"Eastern part of the Seto Inland Sea"	34.48333333		135.0638889														15	17.4					32.255		52.9																					2020/7/1	2020/7/1
